Time;durP1;ratioP1;P1;durP2;ratioP2;P2;SDS_P1;SDS_P2;PMS_P1;PMS_P2;Temp;Humidity;BMP_temperature;BMP_pressure;BME280_temperature;BME280_humidity;BME280_pressure;Samples;Min_cycle;Max_cycle;Signal;HPM_P1;HPM_P2
2021/04/18 00:00:24;;;;;;;15.88;9.70;;;;;;;9.12;69.54;101586.13;685461;28;23466;-58
2021/04/18 00:00:45;;;;;;;13.02;9.63;;;;;;;9.11;69.42;101584.44;682849;28;101696;-60
2021/04/18 00:01:07;;;;;;;12.13;9.35;;;;;;;9.12;69.31;101578.06;686045;28;21771;-59
2021/04/18 00:01:28;;;;;;;11.30;9.23;;;;;;;9.12;69.31;101585.25;685213;28;45916;-57
2021/04/18 00:01:50;;;;;;;13.07;9.73;;;;;;;9.13;69.40;101589.66;684645;28;23501;-60
2021/04/18 00:02:11;;;;;;;16.40;10.05;;;;;;;9.13;69.31;101584.28;684561;28;39562;-58
2021/04/18 00:02:32;;;;;;;14.18;9.75;;;;;;;9.12;69.40;101590.66;686136;28;21546;-59
2021/04/18 00:02:54;;;;;;;13.23;9.60;;;;;;;9.13;69.44;101576.19;686233;28;22200;-59
2021/04/18 00:03:15;;;;;;;12.23;9.77;;;;;;;9.13;69.29;101589.66;685235;28;46249;-60
2021/04/18 00:03:36;;;;;;;12.85;9.82;;;;;;;9.12;69.17;101578.06;686159;28;22338;-59
2021/04/18 00:03:57;;;;;;;12.85;9.30;;;;;;;9.12;69.46;101586.13;686455;28;8375;-59
2021/04/18 00:04:18;;;;;;;12.27;9.07;;;;;;;9.10;69.09;101585.41;686511;28;13230;-60
2021/04/18 00:04:40;;;;;;;12.02;9.25;;;;;;;9.12;69.28;101587.97;685915;28;21293;-59
2021/04/18 00:05:01;;;;;;;13.05;9.65;;;;;;;9.10;69.34;101585.41;685310;28;46463;-56
2021/04/18 00:05:23;;;;;;;13.43;9.57;;;;;;;9.11;69.34;101587.13;685936;28;23511;-59
2021/04/18 00:05:44;;;;;;;12.63;9.65;;;;;;;9.10;69.35;101588.09;685326;28;46483;-57
2021/04/18 00:06:06;;;;;;;12.38;9.73;;;;;;;9.10;69.31;101587.28;685619;28;23556;-58
2021/04/18 00:06:27;;;;;;;12.52;9.60;;;;;;;9.10;69.42;101585.41;685452;28;44387;-59
2021/04/18 00:06:48;;;;;;;11.88;9.43;;;;;;;9.10;69.14;101584.56;685612;28;22314;-55
2021/04/18 00:07:09;;;;;;;12.27;9.52;;;;;;;9.09;69.38;101586.44;686447;28;18952;-58
2021/04/18 00:07:31;;;;;;;14.18;9.95;;;;;;;9.08;69.35;101579.34;686118;28;18337;-56
2021/04/18 00:08:01;;;;;;;13.23;9.95;;;;;;;9.08;69.28;101582.03;684750;28;46287;-59
2021/04/18 00:08:22;;;;;;;12.90;9.75;;;;;;;9.08;69.23;101586.56;681638;28;136185;-58
2021/04/18 00:08:43;;;;;;;12.88;9.18;;;;;;;9.08;69.41;101578.50;686461;28;11385;-59
2021/04/18 00:09:05;;;;;;;12.82;9.63;;;;;;;9.07;69.19;101584.88;686639;28;3653;-60
2021/04/18 00:09:26;;;;;;;11.93;9.57;;;;;;;9.08;69.23;101582.03;684364;28;46464;-60
2021/04/18 00:09:47;;;;;;;13.23;9.68;;;;;;;9.07;69.15;101579.47;686026;28;23381;-60
2021/04/18 00:10:10;;;;;;;13.27;9.70;;;;;;;9.08;69.36;101579.34;686036;28;23476;-54
2021/04/18 00:10:33;;;;;;;12.85;9.13;;;;;;;9.07;69.21;101576.78;684566;28;66700;-58
2021/04/18 00:10:54;;;;;;;14.23;9.30;;;;;;;9.07;69.14;101582.16;684628;28;68453;-57
2021/04/18 00:11:16;;;;;;;11.63;9.45;;;;;;;9.06;69.11;101575.94;685995;28;23480;-58
2021/04/18 00:11:37;;;;;;;12.68;9.57;;;;;;;9.06;69.33;101572.38;684885;28;45258;-59
2021/04/18 00:11:59;;;;;;;12.82;9.93;;;;;;;9.05;69.40;101573.41;685720;28;22421;-57
2021/04/18 00:12:20;;;;;;;13.70;10.00;;;;;;;9.05;69.29;101568.00;685865;28;22257;-60
2021/04/18 00:12:41;;;;;;;13.68;9.75;;;;;;;9.04;69.19;101567.13;685948;28;21521;-58
2021/04/18 00:13:03;;;;;;;12.52;9.60;;;;;;;9.04;69.44;101571.69;682246;28;44439;-58
2021/04/18 00:13:25;;;;;;;13.43;9.73;;;;;;;9.02;69.46;101571.84;682429;28;44395;-59
2021/04/18 00:13:46;;;;;;;12.40;10.07;;;;;;;9.02;69.41;101572.66;682346;28;44357;-58
2021/04/18 00:14:08;;;;;;;14.07;10.63;;;;;;;9.01;69.38;101573.69;683099;28;22400;-57
2021/04/18 00:14:30;;;;;;;13.10;10.27;;;;;;;9.00;69.61;101563.91;682341;28;46502;-60
2021/04/18 00:14:51;;;;;;;15.50;10.88;;;;;;;9.00;69.53;101566.59;684155;28;22417;-59
2021/04/18 00:15:14;;;;;;;14.63;10.05;;;;;;;8.99;69.56;101570.25;685270;28;23489;-60
2021/04/18 00:15:38;;;;;;;12.75;9.52;;;;;;;8.99;69.52;101575.66;682660;28;92407;-58
2021/04/18 00:15:59;;;;;;;13.25;9.82;;;;;;;8.98;69.58;101568.59;683520;28;89212;-58
2021/04/18 00:16:21;;;;;;;16.45;9.88;;;;;;;8.98;69.53;101563.19;686334;28;1402;-59
2021/04/18 00:16:43;;;;;;;16.13;10.30;;;;;;;8.97;69.42;101569.56;686120;28;1039;-58
2021/04/18 00:17:09;;;;;;;14.30;9.82;;;;;;;8.97;69.86;101569.56;685252;28;60445;-56
2021/04/18 00:17:31;;;;;;;13.48;9.48;;;;;;;8.97;69.70;101568.72;686859;28;843;-56
2021/04/18 00:17:52;;;;;;;13.40;9.73;;;;;;;8.94;69.66;101561.78;686743;28;9506;-57
2021/04/18 00:18:15;;;;;;;14.63;10.33;;;;;;;8.95;69.58;101559.94;685855;28;24302;-56
2021/04/18 00:18:36;;;;;;;14.07;9.82;;;;;;;8.95;69.51;101560.78;683191;28;89388;-57
2021/04/18 00:18:57;;;;;;;12.90;9.75;;;;;;;8.96;69.58;101557.09;686218;28;23527;-60
2021/04/18 00:19:18;;;;;;;12.82;10.00;;;;;;;8.96;69.43;101567.03;685749;28;22363;-58
2021/04/18 00:19:39;;;;;;;12.13;9.70;;;;;;;8.97;69.65;101568.72;685048;28;44359;-58
2021/04/18 00:20:01;;;;;;;12.32;9.15;;;;;;;8.95;69.52;101566.19;686431;28;20386;-60
2021/04/18 00:20:22;;;;;;;12.65;9.88;;;;;;;8.96;69.42;101567.88;686272;28;22416;-57
2021/04/18 00:20:43;;;;;;;12.15;9.68;;;;;;;8.96;69.54;101572.41;685833;28;22339;-58
2021/04/18 00:21:04;;;;;;;14.23;9.90;;;;;;;8.96;69.55;101567.03;685540;28;45290;-55
2021/04/18 00:21:26;;;;;;;14.95;9.80;;;;;;;8.95;69.67;101565.31;681814;29;20782;-56
2021/04/18 00:21:48;;;;;;;13.65;9.90;;;;;;;8.95;69.65;101563.50;682831;28;23560;-59
2021/04/18 00:22:10;;;;;;;14.05;10.00;;;;;;;8.95;69.57;101565.31;681918;28;68681;-57
2021/04/18 00:22:31;;;;;;;12.02;10.07;;;;;;;8.94;69.57;101563.63;682261;28;46154;-58
2021/04/18 00:22:53;;;;;;;11.63;9.55;;;;;;;8.94;69.54;101563.63;681821;29;21354;-57
2021/04/18 00:23:14;;;;;;;11.50;9.95;;;;;;;8.94;69.74;101564.47;682615;28;20807;-58
2021/04/18 00:23:35;;;;;;;11.88;9.65;;;;;;;8.93;69.68;101565.47;685861;28;22406;-58
2021/04/18 00:23:56;;;;;;;12.98;9.77;;;;;;;8.94;69.60;101566.34;684844;28;21500;-57
2021/04/18 00:24:17;;;;;;;13.00;9.55;;;;;;;8.95;69.69;101571.56;685260;28;47255;-57
2021/04/18 00:24:39;;;;;;;13.65;9.68;;;;;;;8.94;69.73;101567.16;685951;28;23417;-57
2021/04/18 00:25:00;;;;;;;13.20;9.85;;;;;;;8.94;69.61;101564.47;686035;28;22390;-59
2021/04/18 00:25:21;;;;;;;14.07;10.02;;;;;;;8.94;69.62;101563.63;685849;28;23495;-59
2021/04/18 00:25:42;;;;;;;13.90;9.93;;;;;;;8.92;69.70;101563.78;685230;28;46407;-57
2021/04/18 00:26:03;;;;;;;15.65;9.93;;;;;;;8.92;69.53;101571.00;685695;28;23497;-55
2021/04/18 00:26:24;;;;;;;14.23;10.18;;;;;;;8.91;69.75;101563.94;686097;28;23710;-59
2021/04/18 00:26:46;;;;;;;13.85;10.25;;;;;;;8.90;69.68;101564.91;685921;28;22667;-56
2021/04/18 00:27:07;;;;;;;15.80;10.18;;;;;;;8.90;69.77;101560.38;685486;28;34491;-57
2021/04/18 00:27:29;;;;;;;13.30;9.88;;;;;;;8.89;69.63;101566.78;684718;28;22413;-60
2021/04/18 00:27:50;;;;;;;16.42;9.82;;;;;;;8.87;69.85;101557.13;684849;28;22425;-59
2021/04/18 00:28:11;;;;;;;14.02;9.68;;;;;;;8.87;69.61;101567.91;685972;28;22356;-55
2021/04/18 00:28:32;;;;;;;12.63;9.55;;;;;;;8.87;69.61;101557.13;685522;28;22184;-56
2021/04/18 00:28:54;;;;;;;14.93;9.77;;;;;;;8.86;70.00;101564.38;683873;28;46260;-59
2021/04/18 00:29:15;;;;;;;12.27;9.25;;;;;;;8.85;69.68;101562.66;684993;28;13639;-59
2021/04/18 00:29:36;;;;;;;12.02;9.15;;;;;;;8.86;69.65;101571.59;684122;28;22387;-59
2021/04/18 00:29:57;;;;;;;13.13;9.95;;;;;;;8.85;69.64;101559.97;682593;28;23495;-58
2021/04/18 00:30:20;;;;;;;16.27;10.30;;;;;;;8.84;69.71;101561.81;683296;28;23597;-60
2021/04/18 00:30:41;;;;;;;14.32;10.13;;;;;;;8.83;69.74;101557.41;680634;28;92162;-59
2021/04/18 00:31:02;;;;;;;15.13;10.30;;;;;;;8.82;69.88;101563.81;682956;28;22467;-58
2021/04/18 00:31:24;;;;;;;14.48;10.30;;;;;;;8.82;69.71;101562.94;683010;28;21519;-59
2021/04/18 00:31:45;;;;;;;12.68;9.73;;;;;;;8.81;69.83;101566.66;683182;28;46296;-58
2021/04/18 00:32:07;;;;;;;13.68;9.63;;;;;;;8.80;69.77;101556.88;685916;28;7164;-58
2021/04/18 00:32:29;;;;;;;14.50;10.32;;;;;;;8.80;69.85;101571.16;686515;28;7344;-59
2021/04/18 00:32:50;;;;;;;14.57;9.70;;;;;;;8.78;69.98;101566.94;684874;28;46335;-59
2021/04/18 00:33:12;;;;;;;18.40;10.45;;;;;;;8.78;70.01;101565.09;684442;28;44392;-60
2021/04/18 00:33:33;;;;;;;16.67;10.38;;;;;;;8.78;70.00;101562.41;685557;28;15928;-56
2021/04/18 00:33:54;;;;;;;15.48;10.13;;;;;;;8.77;70.06;101568.75;685811;28;22404;-59
2021/04/18 00:34:15;;;;;;;16.42;10.32;;;;;;;8.79;69.92;101568.63;683030;28;22488;-60
2021/04/18 00:34:36;;;;;;;13.43;9.82;;;;;;;8.78;69.86;101569.63;683135;28;21533;-59
2021/04/18 00:34:58;;;;;;;12.35;9.93;;;;;;;8.79;69.85;101565.94;682911;28;22444;-59
2021/04/18 00:35:19;;;;;;;13.02;9.68;;;;;;;8.79;70.02;101572.19;682386;28;46437;-59
2021/04/18 00:35:40;;;;;;;13.40;9.35;;;;;;;8.78;69.89;101565.09;682685;28;39645;-59
2021/04/18 00:36:03;;;;;;;11.88;9.38;;;;;;;8.79;69.82;101563.22;683922;28;14932;-60
2021/04/18 00:36:24;;;;;;;12.48;9.93;;;;;;;8.80;69.77;101564.94;686055;28;23373;-59
2021/04/18 00:36:45;;;;;;;12.82;9.93;;;;;;;8.79;69.72;101571.31;685436;28;45408;-60
2021/04/18 00:37:06;;;;;;;14.30;10.25;;;;;;;8.79;69.68;101566.78;686071;28;23565;-60
2021/04/18 00:37:27;;;;;;;15.38;10.40;;;;;;;8.79;69.95;101569.50;685922;28;22404;-60
2021/04/18 00:37:49;;;;;;;14.93;10.35;;;;;;;8.79;69.80;101565.94;685927;28;21530;-58
2021/04/18 00:38:10;;;;;;;12.05;9.63;;;;;;;8.80;69.75;101575.72;685657;28;21682;-60
2021/04/18 00:38:31;;;;;;;13.43;9.73;;;;;;;8.80;69.76;101575.72;684801;28;44414;-58
2021/04/18 00:38:52;;;;;;;12.00;9.85;;;;;;;8.79;69.69;101572.19;686010;28;22180;-60
2021/04/18 00:39:13;;;;;;;11.05;9.35;;;;;;;8.79;69.72;101568.63;685869;28;21534;-55
2021/04/18 00:39:36;;;;;;;13.80;10.15;;;;;;;8.79;69.66;101565.94;682297;28;13949;-56
2021/04/18 00:39:57;;;;;;;14.88;10.40;;;;;;;8.79;69.57;101574.00;681329;29;36024;-57
2021/04/18 00:40:20;;;;;;;11.70;9.85;;;;;;;8.79;69.91;101568.63;682350;29;12722;-58
2021/04/18 00:40:41;;;;;;;13.77;9.80;;;;;;;8.80;69.85;101564.94;679969;28;69237;-57
2021/04/18 00:41:03;;;;;;;12.68;9.63;;;;;;;8.78;69.70;101567.78;682728;28;23512;-58
2021/04/18 00:41:24;;;;;;;13.75;9.68;;;;;;;8.77;69.97;101567.94;682231;28;46315;-58
2021/04/18 00:41:45;;;;;;;12.88;9.88;;;;;;;8.78;69.68;101561.56;686031;28;17655;-59
2021/04/18 00:42:06;;;;;;;12.52;9.52;;;;;;;8.77;69.78;101566.06;686068;28;22397;-57
2021/04/18 00:42:27;;;;;;;13.93;9.65;;;;;;;8.77;69.90;101566.06;683454;28;14077;-60
2021/04/18 00:42:49;;;;;;;15.50;9.75;;;;;;;8.77;69.73;101567.94;684348;28;17362;-59
2021/04/18 00:43:10;;;;;;;14.90;9.80;;;;;;;8.77;69.94;101555.28;683848;28;43874;-59
2021/04/18 00:43:31;;;;;;;13.57;9.88;;;;;;;8.77;69.91;101565.22;683109;28;47256;-60
2021/04/18 00:43:52;;;;;;;13.23;10.15;;;;;;;8.77;69.84;101562.53;684795;28;16008;-60
2021/04/18 00:44:14;;;;;;;14.15;10.18;;;;;;;8.76;69.73;101564.41;684168;28;21503;-59
2021/04/18 00:44:35;;;;;;;14.85;9.90;;;;;;;8.77;69.93;101562.53;685567;28;23525;-60
2021/04/18 00:44:56;;;;;;;13.35;9.75;;;;;;;8.78;69.91;101562.41;684662;28;22474;-59
2021/04/18 00:45:19;;;;;;;13.45;9.98;;;;;;;8.77;69.64;101568.75;685834;28;23510;-59
2021/04/18 00:45:40;;;;;;;15.25;10.27;;;;;;;8.76;69.79;101563.53;683801;28;69219;-59
2021/04/18 00:46:02;;;;;;;15.65;10.00;;;;;;;8.76;69.88;101563.53;685884;28;21544;-58
2021/04/18 00:46:23;;;;;;;13.85;9.75;;;;;;;8.75;70.18;101568.06;685325;28;44405;-58
2021/04/18 00:46:44;;;;;;;11.93;9.68;;;;;;;8.74;70.12;101565.53;685561;28;23005;-59
2021/04/18 00:47:05;;;;;;;14.23;9.98;;;;;;;8.72;70.10;101565.66;686056;28;23902;-59
2021/04/18 00:47:26;;;;;;;13.15;9.73;;;;;;;8.72;69.96;101562.13;684301;28;22452;-59
2021/04/18 00:47:50;;;;;;;12.05;9.90;;;;;;;8.71;70.28;101574.72;684966;28;45170;-59
2021/04/18 00:48:12;;;;;;;13.30;9.85;;;;;;;8.71;70.05;101566.66;683629;28;90359;-59
2021/04/18 00:48:34;;;;;;;12.80;9.35;;;;;;;8.71;70.21;101569.34;685218;28;23456;-60
2021/04/18 00:48:55;;;;;;;12.55;9.52;;;;;;;8.71;70.26;101558.56;685326;28;46399;-57
2021/04/18 00:49:16;;;;;;;13.13;9.68;;;;;;;8.72;70.13;101567.53;685980;28;23448;-56
2021/04/18 00:49:37;;;;;;;13.70;9.73;;;;;;;8.72;70.34;101565.66;684671;28;44544;-59
2021/04/18 00:49:59;;;;;;;13.73;10.20;;;;;;;8.73;70.24;101561.13;685805;28;23714;-59
2021/04/18 00:50:22;;;;;;;12.40;10.00;;;;;;;8.73;70.40;101558.41;686129;28;1006;-56
2021/04/18 00:50:44;;;;;;;12.07;9.75;;;;;;;8.74;70.19;101557.44;681975;28;92009;-57
2021/04/18 00:51:06;;;;;;;13.23;9.93;;;;;;;8.74;70.40;101554.75;685022;28;45245;-58
2021/04/18 00:51:28;;;;;;;13.65;9.85;;;;;;;8.76;70.46;101563.53;686625;28;904;-57
2021/04/18 00:51:50;;;;;;;11.80;9.75;;;;;;;8.76;70.34;101558.13;686310;28;1037;-57
2021/04/18 00:52:18;;;;;;;11.75;9.35;;;;;;;8.76;70.46;101561.69;682968;28;61831;-57
2021/04/18 00:52:40;;;;;;;11.93;9.75;;;;;;;8.76;70.24;101559.00;685966;28;1499;-60
2021/04/18 00:53:04;;;;;;;13.38;10.43;;;;;;;8.76;70.49;101558.13;686807;28;6626;-58
2021/04/18 00:53:25;;;;;;;14.30;9.88;;;;;;;8.76;70.36;101560.81;683190;28;88890;-60
2021/04/18 00:53:47;;;;;;;15.48;10.15;;;;;;;8.76;70.32;101558.13;686031;28;7776;-59
2021/04/18 00:54:08;;;;;;;12.55;9.45;;;;;;;8.77;70.05;101565.22;685127;28;38714;-59
2021/04/18 00:54:29;;;;;;;15.20;9.75;;;;;;;8.77;70.06;101554.47;685317;28;23427;-59
2021/04/18 00:54:51;;;;;;;14.38;10.10;;;;;;;8.77;70.12;101562.53;686369;28;9214;-58
2021/04/18 00:55:13;;;;;;;12.75;10.00;;;;;;;8.75;70.27;101562.69;682437;28;36013;-58
2021/04/18 00:55:36;;;;;;;16.88;10.70;;;;;;;8.74;70.24;101562.81;682281;28;51192;-59
2021/04/18 00:55:57;;;;;;;13.60;10.43;;;;;;;8.73;70.14;101562.00;681945;28;46612;-58
2021/04/18 00:56:18;;;;;;;13.38;10.20;;;;;;;8.71;70.19;101560.41;682429;28;46682;-56
2021/04/18 00:56:40;;;;;;;13.82;9.75;;;;;;;8.71;70.46;101561.25;682099;28;18068;-57
2021/04/18 00:57:01;;;;;;;14.00;9.93;;;;;;;8.70;70.29;101564.97;683985;28;18531;-58
2021/04/18 00:57:22;;;;;;;13.68;10.13;;;;;;;8.69;70.32;101557.88;685289;28;45239;-57
2021/04/18 00:57:44;;;;;;;13.52;10.07;;;;;;;8.70;70.39;101566.78;685667;28;23423;-57
2021/04/18 00:58:06;;;;;;;14.60;10.48;;;;;;;8.71;70.28;101558.56;685684;28;23457;-58
2021/04/18 00:58:27;;;;;;;12.05;9.68;;;;;;;8.69;70.47;101557.88;682923;28;45263;-59
2021/04/18 00:58:48;;;;;;;13.82;9.82;;;;;;;8.69;70.64;101557.88;682209;28;45484;-58
2021/04/18 00:59:10;;;;;;;13.52;10.02;;;;;;;8.69;70.68;101559.72;683149;28;23502;-60
2021/04/18 00:59:31;;;;;;;12.60;10.00;;;;;;;8.70;70.64;101553.31;682374;28;22406;-59
2021/04/18 00:59:53;;;;;;;15.55;10.80;;;;;;;8.70;70.75;101553.31;682631;28;21562;-58
2021/04/18 01:00:15;;;;;;;14.82;10.93;;;;;;;8.68;70.69;101558.84;679762;29;44346;-58
2021/04/18 01:00:37;;;;;;;12.80;10.05;;;;;;;8.69;70.84;101557.03;679720;29;43318;-57
2021/04/18 01:00:59;;;;;;;13.73;10.45;;;;;;;8.69;70.76;101557.03;679772;29;34850;-56
2021/04/18 01:01:20;;;;;;;13.57;10.32;;;;;;;8.69;70.89;101548.97;678403;29;12285;-56
2021/04/18 01:01:41;;;;;;;16.17;10.47;;;;;;;8.69;70.82;101555.19;676194;29;38703;-57
2021/04/18 01:02:04;;;;;;;16.45;10.35;;;;;;;8.69;70.89;101560.56;678616;29;46447;-56
2021/04/18 01:02:25;;;;;;;14.63;10.40;;;;;;;8.69;70.86;101562.41;680839;29;46427;-58
2021/04/18 01:02:48;;;;;;;14.50;10.68;;;;;;;8.69;70.89;101557.88;677540;29;47523;-57
2021/04/18 01:03:09;;;;;;;13.40;10.40;;;;;;;8.70;71.19;101558.72;678705;29;46310;-59
2021/04/18 01:03:33;;;;;;;14.93;10.63;;;;;;;8.70;71.21;101564.97;679425;28;92389;-57
2021/04/18 01:03:54;;;;;;;16.98;10.48;;;;;;;8.70;70.93;101559.59;680809;29;46387;-58
2021/04/18 01:04:15;;;;;;;13.43;10.48;;;;;;;8.72;70.96;101557.59;681571;29;23586;-57
2021/04/18 01:04:37;;;;;;;13.38;10.50;;;;;;;8.72;71.17;101557.59;678713;29;46143;-57
2021/04/18 01:04:58;;;;;;;13.25;10.18;;;;;;;8.72;70.98;101556.75;681876;29;21554;-58
2021/04/18 01:05:20;;;;;;;14.98;10.93;;;;;;;8.72;71.17;101560.28;680234;29;22425;-58
2021/04/18 01:05:42;;;;;;;14.65;10.18;;;;;;;8.72;71.10;101559.44;677077;29;46370;-58
2021/04/18 01:06:03;;;;;;;12.70;10.30;;;;;;;8.74;70.95;101560.13;678161;29;22496;-59
2021/04/18 01:06:28;;;;;;;13.73;10.65;;;;;;;8.74;70.92;101562.81;673169;29;138871;-58
2021/04/18 01:06:49;;;;;;;13.48;10.40;;;;;;;8.74;70.96;101563.66;678970;29;22563;-59
2021/04/18 01:07:11;;;;;;;14.60;9.90;;;;;;;8.76;71.12;101564.41;680174;29;22385;-57
2021/04/18 01:07:32;;;;;;;14.70;10.65;;;;;;;8.74;71.05;101566.34;680639;29;45202;-56
2021/04/18 01:07:54;;;;;;;15.30;10.50;;;;;;;8.75;71.09;101564.53;681363;29;23560;-59
2021/04/18 01:08:15;;;;;;;14.82;10.27;;;;;;;8.74;71.04;101557.44;681313;28;46347;-59
2021/04/18 01:08:36;;;;;;;12.85;9.93;;;;;;;8.75;71.12;101568.06;681249;28;22427;-58
2021/04/18 01:09:00;;;;;;;12.75;10.57;;;;;;;8.76;70.81;101560.81;682989;28;21522;-56
2021/04/18 01:09:22;;;;;;;14.13;10.27;;;;;;;8.76;70.95;101567.09;680176;28;92417;-58
2021/04/18 01:09:43;;;;;;;14.32;10.32;;;;;;;8.77;70.94;101567.94;679147;29;44226;-59
2021/04/18 01:10:08;;;;;;;13.45;9.85;;;;;;;8.77;70.98;101568.75;681641;29;21504;-56
2021/04/18 01:10:29;;;;;;;15.07;10.55;;;;;;;8.77;70.86;101562.53;679234;28;115084;-59
2021/04/18 01:10:52;;;;;;;15.27;10.77;;;;;;;8.79;71.01;101566.78;680727;28;46057;-57
2021/04/18 01:11:13;;;;;;;13.73;9.70;;;;;;;8.79;71.09;101564.09;680681;29;46389;-58
2021/04/18 01:11:34;;;;;;;13.65;9.90;;;;;;;8.79;70.79;101568.63;680308;29;22403;-58
2021/04/18 01:11:55;;;;;;;14.52;10.32;;;;;;;8.79;70.95;101568.63;680276;29;23475;-59
2021/04/18 01:12:17;;;;;;;15.00;11.15;;;;;;;8.80;71.07;101565.78;680105;29;23338;-60
2021/04/18 01:12:38;;;;;;;13.18;10.32;;;;;;;8.81;70.74;101569.34;679713;28;46309;-60
2021/04/18 01:12:59;;;;;;;15.05;10.20;;;;;;;8.81;70.78;101558.56;683042;28;21513;-60
2021/04/18 01:13:21;;;;;;;13.73;10.32;;;;;;;8.81;70.71;101566.66;683216;28;44339;-59
2021/04/18 01:13:44;;;;;;;13.65;9.88;;;;;;;8.82;70.79;101571.03;685383;28;21505;-59
2021/04/18 01:14:11;;;;;;;12.25;9.65;;;;;;;8.81;70.78;101572.03;684735;28;62075;-58
2021/04/18 01:14:32;;;;;;;15.10;10.38;;;;;;;8.80;70.81;101565.78;685447;28;21432;-58
2021/04/18 01:14:54;;;;;;;15.10;10.45;;;;;;;8.81;70.85;101567.50;683535;28;5157;-58
2021/04/18 01:15:16;;;;;;;12.15;9.75;;;;;;;8.81;70.65;101572.03;682271;28;22389;-57
2021/04/18 01:15:38;;;;;;;14.07;9.70;;;;;;;8.80;70.84;101570.34;681039;28;70317;-56
2021/04/18 01:15:59;;;;;;;13.63;9.25;;;;;;;8.81;70.63;101572.88;682934;28;23496;-53
2021/04/18 01:16:20;;;;;;;13.85;9.43;;;;;;;8.80;70.65;101568.47;683197;28;17578;-56
2021/04/18 01:16:44;;;;;;;12.13;9.45;;;;;;;8.80;70.83;101571.16;683638;28;6061;-54
2021/04/18 01:17:05;;;;;;;13.13;9.50;;;;;;;8.81;70.77;101570.19;681093;28;70447;-57
2021/04/18 01:17:27;;;;;;;11.65;9.13;;;;;;;8.81;70.73;101569.34;679957;29;39376;-57
2021/04/18 01:17:49;;;;;;;10.65;8.52;;;;;;;8.81;70.65;101569.34;679361;29;45279;-58
2021/04/18 01:18:10;;;;;;;11.73;9.10;;;;;;;8.81;70.71;101566.66;681371;28;17899;-56
2021/04/18 01:18:32;;;;;;;10.98;8.90;;;;;;;8.80;71.19;101573.03;681419;28;45253;-57
2021/04/18 01:18:53;;;;;;;11.65;9.27;;;;;;;8.80;70.74;101571.16;683173;28;22550;-57
2021/04/18 01:19:15;;;;;;;11.45;8.75;;;;;;;8.80;70.86;101571.16;680033;28;46346;-58
2021/04/18 01:19:37;;;;;;;11.70;8.55;;;;;;;8.79;70.79;101569.50;679044;29;23509;-56
2021/04/18 01:19:59;;;;;;;12.67;9.00;;;;;;;8.79;70.72;101568.63;677147;29;69530;-58
2021/04/18 01:20:22;;;;;;;11.60;9.07;;;;;;;8.79;70.57;101574.88;681539;29;16513;-60
2021/04/18 01:21:05;;;;;;;11.18;8.57;;;;;;;8.80;70.57;101570.34;676657;29;159775;-56
2021/04/18 01:21:42;;;;;;;10.77;8.00;;;;;;;8.79;70.78;101571.31;681541;28;137737;-57
2021/04/18 01:22:22;;;;;;;10.90;8.57;;;;;;;8.80;70.85;101575.72;680658;28;137862;-58
2021/04/18 01:22:58;;;;;;;10.88;8.73;;;;;;;8.81;70.79;101572.03;679504;28;137590;-58
2021/04/18 01:23:28;;;;;;;12.13;8.52;;;;;;;8.83;70.47;101565.50;684332;28;62028;-59
2021/04/18 01:24:10;;;;;;;11.43;8.18;;;;;;;8.85;70.47;101568.03;678531;28;137173;-60
2021/04/18 01:24:39;;;;;;;10.23;8.00;;;;;;;8.86;70.36;101568.91;679065;28;131893;-57
2021/04/18 01:25:26;;;;;;;11.13;8.25;;;;;;;8.88;70.60;101569.59;677394;28;137809;-58
2021/04/18 01:26:02;;;;;;;9.32;7.70;;;;;;;8.88;70.40;101567.75;680764;28;139039;-57
2021/04/18 01:26:24;;;;;;;9.23;7.95;;;;;;;8.90;70.17;101570.31;684895;28;45251;-59
2021/04/18 01:26:48;;;;;;;9.73;8.10;;;;;;;8.90;70.33;101570.31;679203;28;115077;-57
2021/04/18 01:27:11;;;;;;;9.10;8.02;;;;;;;8.89;70.34;101571.31;682278;28;20822;-58
2021/04/18 01:27:32;;;;;;;10.95;8.38;;;;;;;8.89;70.29;101561.38;682152;28;44376;-59
2021/04/18 01:27:55;;;;;;;10.98;8.20;;;;;;;8.88;70.10;101556.97;681817;28;47306;-58
2021/04/18 01:28:16;;;;;;;9.85;8.07;;;;;;;8.87;69.98;101562.50;682596;28;46108;-58
2021/04/18 01:28:37;;;;;;;9.00;7.65;;;;;;;8.85;69.78;101557.25;682681;28;22367;-59
2021/04/18 01:29:00;;;;;;;11.80;7.97;;;;;;;8.85;70.11;101557.25;683760;28;1574;-59
2021/04/18 01:29:23;;;;;;;10.75;8.00;;;;;;;8.86;69.88;101558.13;683293;28;1308;-57
2021/04/18 01:29:45;;;;;;;9.68;7.63;;;;;;;8.85;69.85;101559.97;684778;28;931;-57
2021/04/18 01:30:07;;;;;;;11.85;7.90;;;;;;;8.84;69.79;101561.81;686867;28;2902;-55
2021/04/18 01:30:29;;;;;;;11.73;7.60;;;;;;;8.82;70.02;101561.13;684865;28;58611;-60
2021/04/18 01:30:51;;;;;;;9.60;7.93;;;;;;;8.82;69.72;101561.13;685320;28;24360;-60
2021/04/18 01:31:12;;;;;;;9.15;7.63;;;;;;;8.81;69.79;101561.25;684610;28;6222;-60
2021/04/18 01:31:33;;;;;;;9.10;7.78;;;;;;;8.79;69.80;101564.09;683258;28;45383;-55
2021/04/18 01:31:54;;;;;;;8.88;7.72;;;;;;;8.78;69.95;101556.16;683817;28;24371;-60
2021/04/18 01:32:21;;;;;;;9.75;7.57;;;;;;;8.78;69.78;101565.09;684826;28;959;-58
2021/04/18 01:32:46;;;;;;;9.23;7.32;;;;;;;8.77;69.79;101563.38;679877;29;60893;-59
2021/04/18 01:33:07;;;;;;;8.40;7.03;;;;;;;8.79;70.04;101566.78;682985;28;30011;-60
2021/04/18 01:33:28;;;;;;;8.60;7.13;;;;;;;8.80;69.69;101570.34;683879;28;32855;-60
2021/04/18 01:33:50;;;;;;;9.73;7.10;;;;;;;8.81;69.98;101572.88;685035;28;869;-58
2021/04/18 01:34:15;;;;;;;10.93;7.35;;;;;;;8.81;69.84;101572.03;681466;28;92373;-60
2021/04/18 01:34:39;;;;;;;10.90;7.47;;;;;;;8.81;70.07;101567.50;684123;28;45253;-59
2021/04/18 01:35:01;;;;;;;10.18;7.55;;;;;;;8.81;69.97;101569.34;682581;28;116089;-59
2021/04/18 01:35:22;;;;;;;8.52;7.18;;;;;;;8.81;69.94;101572.03;684035;28;23247;-56
2021/04/18 01:35:46;;;;;;;9.15;7.20;;;;;;;8.81;70.12;101574.72;683967;28;23403;-58
2021/04/18 01:36:13;;;;;;;11.43;7.53;;;;;;;8.81;70.00;101572.88;683034;28;61407;-60
2021/04/18 01:36:36;;;;;;;10.02;7.13;;;;;;;8.80;70.09;101573.88;685211;28;28295;-58
2021/04/18 01:36:58;;;;;;;11.10;7.70;;;;;;;8.81;70.06;101577.44;686265;28;1624;-60
2021/04/18 01:37:20;;;;;;;9.02;7.28;;;;;;;8.81;70.15;101574.72;686334;28;921;-60
2021/04/18 01:37:42;;;;;;;8.90;7.22;;;;;;;8.81;70.03;101575.56;685122;28;31509;-57
2021/04/18 01:38:04;;;;;;;8.73;6.78;;;;;;;8.82;69.91;101573.72;686405;28;1000;-60
2021/04/18 01:38:26;;;;;;;11.07;7.57;;;;;;;8.82;70.08;101571.03;682050;28;46373;-57
2021/04/18 01:38:47;;;;;;;9.15;6.85;;;;;;;8.82;70.19;101574.59;682520;28;32488;-58
2021/04/18 01:39:10;;;;;;;10.52;7.38;;;;;;;8.82;69.91;101566.50;683294;28;13396;-60
2021/04/18 01:39:33;;;;;;;9.77;7.30;;;;;;;8.82;70.05;101571.91;680259;29;1276;-58
2021/04/18 01:39:55;;;;;;;8.55;7.05;;;;;;;8.81;70.14;101567.50;679075;29;69564;-57
2021/04/18 01:40:19;;;;;;;10.20;7.30;;;;;;;8.82;70.08;101565.63;682032;28;21487;-60
2021/04/18 01:40:41;;;;;;;10.68;7.40;;;;;;;8.81;70.01;101566.66;680711;28;81635;-59
2021/04/18 01:41:02;;;;;;;8.65;6.82;;;;;;;8.81;70.16;101570.19;682099;28;45272;-59
2021/04/18 01:41:23;;;;;;;8.13;7.13;;;;;;;8.81;69.93;101562.09;682154;28;46006;-60
2021/04/18 01:41:45;;;;;;;8.25;7.03;;;;;;;8.80;70.13;101568.47;682927;28;13227;-60
2021/04/18 01:42:07;;;;;;;8.50;7.25;;;;;;;8.81;69.85;101563.97;682283;28;23578;-60
2021/04/18 01:42:28;;;;;;;8.93;7.20;;;;;;;8.82;70.11;101562.94;680937;28;68534;-58
2021/04/18 01:42:50;;;;;;;10.93;7.13;;;;;;;8.82;70.02;101566.50;682903;28;20852;-58
2021/04/18 01:43:13;;;;;;;9.82;7.25;;;;;;;8.82;70.14;101568.34;683471;28;14243;-58
2021/04/18 01:43:37;;;;;;;9.60;7.55;;;;;;;8.83;70.11;101570.03;681100;28;54366;-56
2021/04/18 01:43:58;;;;;;;8.55;6.65;;;;;;;8.83;69.96;101567.34;679354;28;116002;-60
2021/04/18 01:44:20;;;;;;;7.88;6.60;;;;;;;8.83;69.95;101561.97;682353;28;22287;-56
2021/04/18 01:44:42;;;;;;;8.50;6.85;;;;;;;8.84;70.10;101572.59;683186;28;47381;-60
2021/04/18 01:45:05;;;;;;;9.63;7.15;;;;;;;8.85;69.99;101568.03;685845;28;22404;-56